Time;durP1;ratioP1;P1;durP2;ratioP2;P2;SDS_P1;SDS_P2;PMS_P1;PMS_P2;Temp;Humidity;BMP_temperature;BMP_pressure;BME280_temperature;BME280_humidity;BME280_pressure;Samples;Min_cycle;Max_cycle;Signal;HPM_P1;HPM_P2
2021/11/01 00:02:06;;;;;;;47.20;27.70;;;;;;;5.21;75.38;100190.88;117068;1199;22183;-67
2021/11/01 00:04:36;;;;;;;41.80;26.80;;;;;;;5.19;74.94;100187.93;116927;1199;137957;-67
2021/11/01 00:07:04;;;;;;;52.20;29.20;;;;;;;5.17;75.30;100186.06;116991;1198;22365;-67
2021/11/01 00:09:32;;;;;;;53.00;29.10;;;;;;;5.14;75.54;100186.14;116908;1199;137974;-66
2021/11/01 00:12:00;;;;;;;44.80;27.90;;;;;;;5.11;75.46;100183.68;116981;1199;23015;-66
2021/11/01 00:14:29;;;;;;;46.00;28.30;;;;;;;5.08;75.40;100185.62;116987;1198;22279;-66
2021/11/01 00:16:57;;;;;;;46.20;28.10;;;;;;;5.07;75.55;100182.96;116868;1199;137599;-67
2021/11/01 00:22:12;;;;;;;50.50;28.00;;;;;;;5.04;75.65;100178.98;110912;1216;544912;-68
2021/11/01 00:24:41;;;;;;;45.00;27.30;;;;;;;5.01;75.62;100177.45;111973;1200;25126;-66
2021/11/01 00:27:09;;;;;;;49.30;29.80;;;;;;;4.96;75.17;100175.18;111905;1205;137380;-66
2021/11/01 00:29:38;;;;;;;52.30;30.10;;;;;;;4.90;75.56;100176.75;116208;1200;23009;-67
2021/11/01 00:32:06;;;;;;;48.90;29.50;;;;;;;4.83;75.78;100173.84;116152;1205;23065;-67
2021/11/01 00:34:34;;;;;;;45.80;29.30;;;;;;;4.81;76.02;100173.24;116127;1205;137528;-67
2021/11/01 00:37:03;;;;;;;55.50;32.30;;;;;;;4.76;75.77;100169.30;116244;1205;22414;-67
2021/11/01 00:39:31;;;;;;;46.60;29.70;;;;;;;4.71;76.31;100166.47;116069;1204;138317;-67
2021/11/01 00:42:02;;;;;;;51.00;30.60;;;;;;;4.67;76.49;100165.98;116213;1204;22324;-68
2021/11/01 00:44:31;;;;;;;51.50;30.50;;;;;;;4.61;76.66;100168.14;116218;1205;23023;-67
2021/11/01 00:46:59;;;;;;;46.50;28.50;;;;;;;4.58;76.83;100162.28;116066;1204;137307;-68
2021/11/01 00:49:27;;;;;;;49.00;30.20;;;;;;;4.54;76.69;100160.65;116177;1203;22797;-68
2021/11/01 00:51:58;;;;;;;55.60;28.40;;;;;;;4.51;76.61;100154.64;116089;1205;138455;-68
2021/11/01 00:54:27;;;;;;;49.90;29.10;;;;;;;4.46;76.29;100154.56;116281;1205;23310;-68
2021/11/01 00:56:55;;;;;;;49.80;30.70;;;;;;;4.41;76.43;100153.46;116029;1205;138319;-67
2021/11/01 00:59:23;;;;;;;53.20;29.30;;;;;;;4.37;76.61;100152.52;116137;1205;22255;-67
2021/11/01 01:01:51;;;;;;;47.30;27.60;;;;;;;4.33;76.95;100154.39;116224;1190;22389;-67
2021/11/01 01:04:19;;;;;;;48.20;29.50;;;;;;;4.27;76.89;100153.33;116605;1201;137570;-67
2021/11/01 01:06:47;;;;;;;53.90;30.30;;;;;;;4.21;76.50;100152.30;116652;1201;23114;-67
2021/11/01 01:09:15;;;;;;;51.00;31.90;;;;;;;4.15;77.07;100153.95;116527;1201;138162;-67
2021/11/01 01:11:43;;;;;;;52.90;31.70;;;;;;;4.09;77.18;100153.88;116706;1200;22427;-67
2021/11/01 01:14:12;;;;;;;53.40;31.30;;;;;;;4.04;77.16;100149.71;116695;1193;22258;-67
2021/11/01 01:16:43;;;;;;;49.20;29.70;;;;;;;3.99;77.57;100145.20;116526;1201;137823;-67
2021/11/01 01:19:20;;;;;;;57.40;30.80;;;;;;;3.95;77.72;100141.16;116004;1196;22632;-67
2021/11/01 01:24:35;;;;;;;53.40;31.50;;;;;;;3.88;77.98;100138.52;112462;1196;24110;-67
2021/11/01 01:27:03;;;;;;;51.10;31.30;;;;;;;3.84;78.17;100135.96;116449;1200;138770;-67
2021/11/01 01:29:31;;;;;;;48.40;31.30;;;;;;;3.81;78.21;100131.50;116687;1201;22195;-67
2021/11/01 01:32:00;;;;;;;51.90;31.30;;;;;;;3.78;78.43;100126.96;116692;1201;22342;-67
2021/11/01 01:34:28;;;;;;;47.40;29.90;;;;;;;3.75;78.48;100127.45;116570;1200;137534;-67
2021/11/01 01:36:56;;;;;;;48.80;30.30;;;;;;;3.75;78.67;100125.79;116678;1186;22316;-67
2021/11/01 01:39:25;;;;;;;48.60;30.80;;;;;;;3.74;78.56;100123.61;116583;1201;138232;-67
2021/11/01 01:41:53;;;;;;;50.50;30.40;;;;;;;3.70;78.65;100118.22;116671;1201;22338;-67
2021/11/01 01:44:21;;;;;;;52.70;31.50;;;;;;;3.66;78.62;100119.94;116662;1201;22324;-67
2021/11/01 01:46:50;;;;;;;51.10;30.60;;;;;;;3.64;78.65;100116.98;116573;1201;137649;-67
2021/11/01 01:49:18;;;;;;;52.00;30.50;;;;;;;3.61;78.68;100116.50;116663;1200;23069;-67
2021/11/01 01:51:46;;;;;;;52.00;31.60;;;;;;;3.56;78.51;100113.17;116530;1200;139294;-67
2021/11/01 01:54:14;;;;;;;47.80;30.10;;;;;;;3.53;78.71;100111.11;116652;1201;22231;-67
2021/11/01 01:56:42;;;;;;;59.20;31.10;;;;;;;3.47;78.61;100112.15;116584;1201;137943;-67
2021/11/01 01:59:18;;;;;;;53.50;31.30;;;;;;;3.45;78.34;100113.97;116684;1201;22311;-67
2021/11/01 02:01:46;;;;;;;51.50;30.90;;;;;;;3.40;78.34;100109.17;116485;1201;22367;-67
2021/11/01 02:04:25;;;;;;;54.60;31.70;;;;;;;3.34;78.50;100107.05;116559;1200;138381;-66
2021/11/01 02:07:27;;;;;;;50.80;31.80;;;;;;;3.32;78.82;100106.29;116687;1201;22355;-68
2021/11/01 02:10:05;;;;;;;51.40;30.70;;;;;;;3.30;79.03;100105.84;116470;1201;137814;-67
2021/11/01 02:12:35;;;;;;;53.50;32.80;;;;;;;3.29;79.54;100104.17;116629;1201;22786;-68
2021/11/01 02:15:11;;;;;;;56.00;32.80;;;;;;;3.36;80.13;100103.62;116443;1201;138843;-68
2021/11/01 02:17:40;;;;;;;54.40;33.80;;;;;;;3.44;80.85;100106.75;116492;1200;22440;-68
2021/11/01 02:20:10;;;;;;;53.50;32.80;;;;;;;3.52;81.21;100100.98;116697;1201;23229;-67
2021/11/01 02:22:50;;;;;;;51.30;32.50;;;;;;;3.59;81.41;100099.76;116535;1201;137915;-67
2021/11/01 02:25:36;;;;;;;50.60;31.80;;;;;;;3.65;81.31;100094.77;116701;1201;22358;-67
2021/11/01 02:28:04;;;;;;;51.30;31.70;;;;;;;3.71;81.38;100093.48;116483;1201;138870;-68
2021/11/01 02:30:33;;;;;;;51.40;32.10;;;;;;;3.75;81.52;100091.09;116498;1201;23128;-68
2021/11/01 02:33:01;;;;;;;48.80;32.50;;;;;;;3.78;81.35;100087.28;116483;1201;137600;-68
2021/11/01 02:35:29;;;;;;;54.00;33.50;;;;;;;3.82;81.47;100092.40;116627;1200;22753;-67
2021/11/01 02:37:58;;;;;;;50.30;32.70;;;;;;;3.86;81.56;100090.61;116628;1200;22365;-68
2021/11/01 02:40:27;;;;;;;54.50;34.40;;;;;;;3.88;81.71;100088.10;116535;1200;137931;-67
2021/11/01 02:42:56;;;;;;;52.90;33.80;;;;;;;3.92;81.61;100087.06;116653;1193;22364;-68
2021/11/01 02:45:25;;;;;;;52.80;33.10;;;;;;;3.96;81.21;100084.96;116497;1201;137736;-68
2021/11/01 02:47:53;;;;;;;54.40;33.40;;;;;;;3.99;81.24;100080.33;116701;1193;22230;-68
2021/11/01 02:50:20;;;;;;;51.10;32.90;;;;;;;4.01;81.45;100077.36;116676;1195;22355;-68
2021/11/01 02:52:48;;;;;;;58.50;35.80;;;;;;;4.02;81.25;100078.58;116563;1201;137428;-68
2021/11/01 02:55:18;;;;;;;59.30;35.30;;;;;;;4.04;81.39;100078.73;116658;1201;22322;-67
2021/11/01 02:57:47;;;;;;;51.30;33.10;;;;;;;4.05;81.51;100077.36;116510;1194;137588;-68
2021/11/01 03:00:17;;;;;;;53.10;33.80;;;;;;;4.04;81.39;100074.54;116683;1201;22306;-68
2021/11/01 03:02:45;;;;;;;57.90;33.00;;;;;;;4.02;81.29;100078.36;116539;1201;137706;-67
2021/11/01 03:05:19;;;;;;;48.80;31.70;;;;;;;4.01;81.46;100073.71;116675;1187;22763;-68
2021/11/01 03:07:48;;;;;;;50.10;32.30;;;;;;;4.00;81.59;100072.21;116550;1200;22329;-68
2021/11/01 03:10:18;;;;;;;49.40;33.20;;;;;;;3.98;81.68;100073.16;116499;1201;138384;-68
2021/11/01 03:12:47;;;;;;;55.10;34.00;;;;;;;3.98;81.61;100072.66;116660;1201;23110;-68
2021/11/01 03:15:25;;;;;;;58.60;36.60;;;;;;;3.96;81.92;100071.65;116418;1202;140095;-67
2021/11/01 03:17:57;;;;;;;;;;;;;;;3.94;82.17;100070.64;116666;1201;22361;-68
2021/11/01 03:20:38;;;;;;;53.20;31.20;;;;;;;3.93;82.14;100072.45;116632;1201;22421;-68
2021/11/01 03:23:08;;;;;;;55.70;33.70;;;;;;;3.93;82.27;100072.09;116523;1201;137276;-68
2021/11/01 03:25:50;;;;;;;54.60;33.00;;;;;;;3.91;82.54;100067.05;116485;1201;23209;-68
2021/11/01 03:28:19;;;;;;;55.50;34.80;;;;;;;3.90;82.52;100073.36;116536;1186;138318;-68
2021/11/01 03:30:47;;;;;;;53.60;35.70;;;;;;;3.89;82.46;100067.25;116676;1197;22329;-68
2021/11/01 03:33:15;;;;;;;52.20;35.20;;;;;;;3.88;82.67;100068.44;116523;1200;137841;-68
2021/11/01 03:35:44;;;;;;;55.20;36.50;;;;;;;3.86;82.95;100066.71;116600;1201;22332;-68
2021/11/01 03:38:13;;;;;;;51.00;35.20;;;;;;;3.84;82.82;100065.18;116685;1201;22293;-68
2021/11/01 03:40:43;;;;;;;50.80;35.20;;;;;;;3.83;82.74;100063.85;116575;1201;137697;-67
2021/11/01 03:43:16;;;;;;;53.90;36.30;;;;;;;3.81;82.90;100061.59;116618;1196;22313;-67
2021/11/01 03:45:44;;;;;;;55.60;35.50;;;;;;;3.78;83.02;100060.34;116526;1197;138160;-68
2021/11/01 03:48:16;;;;;;;53.60;33.40;;;;;;;3.76;82.88;100058.70;116658;1200;22939;-68
2021/11/01 03:50:57;;;;;;;52.50;34.20;;;;;;;3.71;83.22;100055.38;116623;1201;22302;-68
2021/11/01 03:53:25;;;;;;;50.30;35.10;;;;;;;3.67;83.39;100055.61;116519;1194;137959;-68
2021/11/01 03:55:55;;;;;;;61.50;36.30;;;;;;;3.64;83.45;100053.96;116570;1201;22318;-69
2021/11/01 03:58:24;;;;;;;56.50;36.30;;;;;;;3.63;83.65;100048.95;116383;1201;138149;-67
2021/11/01 04:00:53;;;;;;;60.40;37.10;;;;;;;3.61;83.71;100052.27;116477;1201;22337;-68
2021/11/01 04:03:23;;;;;;;54.20;36.50;;;;;;;3.59;83.66;100047.86;116553;1201;138138;-67
2021/11/01 04:05:55;;;;;;;53.90;35.50;;;;;;;3.57;83.65;100045.08;116656;1201;22320;-68
2021/11/01 04:08:23;;;;;;;58.10;36.10;;;;;;;3.54;83.75;100040.50;116675;1201;22310;-67
2021/11/01 04:10:52;;;;;;;54.50;34.80;;;;;;;3.53;83.74;100039.70;116518;1201;137953;-67
2021/11/01 04:13:20;;;;;;;57.80;37.00;;;;;;;3.51;83.73;100041.17;116654;1201;22288;-67
2021/11/01 04:16:10;;;;;;;55.80;36.50;;;;;;;3.48;83.72;100038.92;116579;1199;137921;-67
2021/11/01 04:21:21;;;;;;;57.20;36.50;;;;;;;3.47;83.94;100031.00;116574;1200;138391;-67
2021/11/01 04:23:49;;;;;;;57.80;36.20;;;;;;;3.46;83.91;100022.98;116726;1200;22811;-66
2021/11/01 04:26:19;;;;;;;59.90;35.50;;;;;;;3.44;83.88;100027.86;116683;1200;22217;-67
2021/11/01 04:28:52;;;;;;;50.30;33.80;;;;;;;3.43;84.04;100024.91;116616;1200;137850;-67
2021/11/01 04:31:29;;;;;;;52.70;35.10;;;;;;;3.42;83.88;100031.82;116689;1200;23025;-68
2021/11/01 04:34:01;;;;;;;53.80;34.90;;;;;;;3.41;84.04;100029.83;116581;1200;138097;-68
2021/11/01 04:36:31;;;;;;;56.70;35.30;;;;;;;3.41;83.99;100027.50;116697;1200;22427;-68
2021/11/01 04:41:41;;;;;;;54.70;36.00;;;;;;;3.39;83.82;100024.30;116605;1200;138197;-68
2021/11/01 04:55:09;;;;;;;58.40;36.40;;;;;;;3.31;83.47;100025.48;116715;1200;22540;-67
2021/11/01 04:57:37;;;;;;;53.60;36.90;;;;;;;3.30;83.60;100027.45;116479;1195;138753;-67
2021/11/01 05:00:06;;;;;;;53.70;34.50;;;;;;;3.26;83.51;100024.08;116608;1201;23145;-67
2021/11/01 05:02:36;;;;;;;57.70;37.90;;;;;;;3.21;83.27;100025.10;116676;1200;22385;-67
2021/11/01 05:05:05;;;;;;;55.50;34.90;;;;;;;3.15;82.92;100020.91;116626;1200;138348;-68
2021/11/01 05:07:33;;;;;;;56.90;35.50;;;;;;;3.10;82.84;100021.56;116688;1201;22395;-68
2021/11/01 05:10:06;;;;;;;55.10;35.40;;;;;;;3.07;82.78;100021.54;116618;1200;138190;-68
2021/11/01 05:12:38;;;;;;;58.40;35.40;;;;;;;3.08;83.22;100021.17;116666;1200;23089;-68
2021/11/01 05:15:10;;;;;;;52.80;35.50;;;;;;;3.11;83.33;100023.22;116714;1200;22435;-68
2021/11/01 05:23:51;;;;;;;60.30;36.40;;;;;;;3.13;83.58;100021.59;116583;1200;138801;-68
2021/11/01 05:28:43;;;;;;;69.30;40.50;;;;;;;3.13;84.10;100018.90;116561;1196;138186;-67
2021/11/01 05:31:19;;;;;;;65.40;41.20;;;;;;;3.13;84.24;100023.11;116669;1200;22386;-67
2021/11/01 05:36:35;;;;;;;73.40;42.80;;;;;;;3.11;84.70;100021.77;116743;1200;22396;-68
2021/11/01 05:39:07;;;;;;;71.50;43.70;;;;;;;3.07;84.97;100020.80;116705;1200;22376;-68
2021/11/01 05:41:35;;;;;;;80.40;45.60;;;;;;;3.09;85.06;100024.70;116597;1200;138043;-68
2021/11/01 05:44:04;;;;;;;90.90;47.50;;;;;;;3.11;85.16;100033.25;116740;1200;23501;-68
2021/11/01 05:46:36;;;;;;;88.30;47.30;;;;;;;3.10;85.30;100033.29;116506;1199;138149;-67
2021/11/01 05:49:05;;;;;;;89.20;46.20;;;;;;;3.10;85.24;100034.20;116672;1200;22421;-66
2021/11/01 05:51:34;;;;;;;94.70;48.00;;;;;;;3.12;85.40;100036.29;116615;1200;138614;-66
2021/11/01 05:54:06;;;;;;;78.50;46.40;;;;;;;3.16;85.56;100038.02;116708;1201;22353;-67
2021/11/01 06:07:05;;;;;;;76.90;42.10;;;;;;;3.33;85.64;100035.73;116708;1200;22318;-66
2021/11/01 06:14:48;;;;;;;68.50;40.40;;;;;;;3.43;85.89;100037.30;116649;1200;22374;-69
2021/11/01 06:17:16;;;;;;;71.00;42.80;;;;;;;3.48;85.54;100036.77;116454;1200;138502;-69
2021/11/01 06:19:45;;;;;;;72.00;41.50;;;;;;;3.53;85.90;100038.63;116610;1200;23099;-69
2021/11/01 06:22:14;;;;;;;65.10;39.60;;;;;;;3.58;85.90;100035.34;116469;1200;138259;-68
2021/11/01 06:24:53;;;;;;;72.90;42.30;;;;;;;3.64;85.71;100033.20;116568;1200;22338;-68
2021/11/01 06:27:23;;;;;;;71.80;40.60;;;;;;;3.70;85.68;100034.81;116568;1201;138981;-68
2021/11/01 06:29:59;;;;;;;61.70;37.40;;;;;;;3.77;85.66;100034.67;116726;1200;23134;-69
2021/11/01 06:32:33;;;;;;;60.50;38.50;;;;;;;3.84;85.57;100033.66;116694;1200;23138;-70
2021/11/01 06:43:04;;;;;;;65.70;41.00;;;;;;;4.14;85.08;100032.63;116559;1201;22343;-69
2021/11/01 06:51:24;;;;;;;64.80;39.30;;;;;;;4.28;84.68;100028.43;116616;1200;22325;-69
2021/11/01 06:56:46;;;;;;;67.40;41.50;;;;;;;4.33;84.01;100028.06;116703;1200;22381;-69
2021/11/01 07:15:54;;;;;;;73.00;39.90;;;;;;;4.80;84.04;100024.05;116604;1200;137994;-69
2021/11/01 07:18:30;;;;;;;62.20;38.70;;;;;;;4.87;83.54;100026.64;116659;1193;22251;-69
2021/11/01 07:21:17;;;;;;;64.00;37.70;;;;;;;4.92;82.97;100024.80;116616;1200;22326;-69
2021/11/01 08:22:39;;;;;;;64.20;41.20;;;;;;;6.84;77.59;99986.19;116811;1198;137728;-63
2021/11/01 08:28:06;;;;;;;58.00;38.60;;;;;;;6.96;77.22;99976.00;116850;1198;138518;-64
2021/11/01 08:47:17;;;;;;;65.60;43.10;;;;;;;7.64;75.21;99959.71;116839;1198;139206;-69
2021/11/01 09:20:21;;;;;;;55.60;38.00;;;;;;;8.44;71.19;99927.42;116444;1202;22440;-68
2021/11/01 09:23:10;;;;;;;60.90;39.30;;;;;;;8.44;71.09;99926.23;116368;1202;137931;-68
2021/11/01 09:28:16;;;;;;;69.10;41.70;;;;;;;8.49;71.20;99918.84;116339;1201;138192;-68
2021/11/01 09:36:25;;;;;;;60.80;40.20;;;;;;;8.61;70.77;99916.80;116354;1201;137984;-69
2021/11/01 09:41:40;;;;;;;52.90;35.40;;;;;;;8.72;70.71;99910.48;116329;1201;138873;-69
2021/11/01 09:44:12;;;;;;;60.30;38.30;;;;;;;8.74;70.49;99902.80;116457;1201;22309;-69
2021/11/01 09:46:41;;;;;;;64.50;40.30;;;;;;;8.78;70.60;99899.38;116858;1198;138633;-69
2021/11/01 09:49:16;;;;;;;59.10;36.10;;;;;;;8.83;70.36;99893.01;117007;1199;22378;-69
2021/11/01 09:51:53;;;;;;;78.10;48.30;;;;;;;8.87;70.47;99888.48;117017;1199;22244;-69
2021/11/01 09:54:26;;;;;;;63.20;39.30;;;;;;;8.91;70.40;99884.66;116888;1198;138039;-68
2021/11/01 09:57:34;;;;;;;64.70;41.10;;;;;;;8.92;70.27;99882.91;116918;1198;22285;-67
2021/11/01 09:59:55;;;;;;;61.70;38.70;;;;;;;8.96;70.39;99884.15;116881;1198;138409;-67
2021/11/01 10:02:24;;;;;;;63.10;41.00;;;;;;;9.00;70.45;99890.02;117016;1199;22312;-68
2021/11/01 10:04:53;;;;;;;54.80;34.10;;;;;;;9.05;70.57;99885.30;116869;1198;137815;-67
2021/11/01 10:07:26;;;;;;;67.00;39.90;;;;;;;9.08;70.24;99881.35;117009;1198;22304;-68
2021/11/01 10:10:02;;;;;;;56.60;33.20;;;;;;;9.10;70.52;99878.61;116952;1198;22336;-67
2021/11/01 10:12:36;;;;;;;70.70;44.30;;;;;;;9.16;70.68;99870.46;116902;1199;137866;-67
2021/11/01 10:18:00;;;;;;;48.40;33.30;;;;;;;9.27;70.34;99867.15;116916;1198;139152;-68
2021/11/01 10:20:32;;;;;;;50.90;35.40;;;;;;;9.29;70.19;99858.27;116956;1198;22304;-68
2021/11/01 10:23:01;;;;;;;60.20;36.20;;;;;;;9.32;70.34;99852.95;116879;1198;138306;-68
2021/11/01 10:25:29;;;;;;;50.80;35.80;;;;;;;9.35;70.25;99849.88;117007;1198;22308;-69
2021/11/01 10:27:58;;;;;;;59.80;36.00;;;;;;;9.40;70.22;99853.81;116982;1198;22366;-69
2021/11/01 10:30:30;;;;;;;63.40;38.40;;;;;;;9.43;70.41;99852.15;116905;1198;137863;-69
2021/11/01 10:33:06;;;;;;;49.70;35.30;;;;;;;9.46;70.24;99853.61;117006;1199;22722;-68
2021/11/01 10:35:40;;;;;;;45.30;32.50;;;;;;;9.48;69.97;99851.27;116922;1198;138885;-69
2021/11/01 10:38:34;;;;;;;52.80;33.20;;;;;;;9.50;70.36;99847.98;116847;1199;22263;-68
2021/11/01 10:44:56;;;;;;;48.80;32.70;;;;;;;9.60;70.19;99844.08;112730;1199;23366;-66
2021/11/01 11:15:33;;;;;;;48.70;30.60;;;;;;;9.93;69.12;99807.14;116758;1199;22396;-66
2021/11/01 11:18:45;;;;;;;46.90;31.70;;;;;;;9.98;69.36;99806.60;116828;1198;138524;-67
2021/11/01 11:20:45;;;;;;;47.70;31.20;;;;;;;10.02;68.84;99804.06;116845;1199;24304;-67
2021/11/01 11:28:43;;;;;;;44.70;29.90;;;;;;;10.10;68.16;99788.13;117035;1198;22489;-67
2021/11/01 11:39:38;;;;;;;46.90;30.90;;;;;;;10.09;68.74;99775.20;117009;1198;22401;-67
2021/11/01 11:47:39;;;;;;;43.40;30.20;;;;;;;10.18;68.13;99767.58;116771;1199;140144;-67
2021/11/01 11:50:21;;;;;;;45.40;29.60;;;;;;;10.18;67.80;99765.85;117020;1198;23038;-67
2021/11/01 11:52:49;;;;;;;46.90;28.90;;;;;;;10.19;68.10;99768.31;116799;1199;22243;-67
2021/11/01 11:55:20;;;;;;;40.60;29.00;;;;;;;10.20;68.01;99770.68;116730;1197;138027;-69
2021/11/01 11:57:58;;;;;;;47.10;31.50;;;;;;;10.21;68.03;99766.44;116988;1198;22176;-69
2021/11/01 12:00:28;;;;;;;40.00;29.80;;;;;;;10.22;67.95;99763.52;116870;1198;138346;-69
2021/11/01 12:03:09;;;;;;;41.20;30.20;;;;;;;10.22;68.01;99757.58;117012;1199;22361;-68
2021/11/01 12:05:42;;;;;;;39.20;27.60;;;;;;;10.27;67.78;99753.23;116943;1198;138358;-69
2021/11/01 12:08:21;;;;;;;40.60;27.80;;;;;;;10.29;67.73;99754.19;116993;1198;22353;-68
2021/11/01 12:18:51;;;;;;;44.80;29.10;;;;;;;10.28;67.88;99743.45;116862;1199;138368;-69
2021/11/01 12:21:20;;;;;;;37.30;25.70;;;;;;;10.29;68.15;99738.55;116995;1198;22264;-69
2021/11/01 12:23:49;;;;;;;43.90;26.90;;;;;;;10.30;67.84;99736.52;116897;1199;138114;-68
2021/11/01 12:26:20;;;;;;;39.20;26.40;;;;;;;10.31;67.63;99731.55;116841;1198;22365;-69
2021/11/01 12:28:56;;;;;;;36.30;25.60;;;;;;;10.28;67.51;99724.33;116664;1199;22308;-68
2021/11/01 12:31:26;;;;;;;43.30;26.70;;;;;;;10.27;67.37;99722.30;116846;1198;139660;-69
2021/11/01 12:39:25;;;;;;;46.40;28.10;;;;;;;10.27;67.67;99721.81;111018;1200;544901;-68
2021/11/01 12:42:48;;;;;;;43.10;29.00;;;;;;;10.24;67.69;99719.54;112019;1202;138596;-69
2021/11/01 12:58:52;;;;;;;85.20;44.50;;;;;;;10.19;67.38;99717.46;115780;1209;22334;-68
2021/11/01 13:01:21;;;;;;;78.00;42.50;;;;;;;10.17;67.20;99711.46;115662;1208;137974;-67
2021/11/01 13:04:26;;;;;;;93.70;49.60;;;;;;;10.15;67.10;99710.45;115850;1202;22301;-68
2021/11/01 13:07:13;;;;;;;79.40;40.60;;;;;;;10.13;67.33;99707.73;115647;1208;138845;-68
2021/11/01 13:09:45;;;;;;;66.00;36.20;;;;;;;10.11;67.11;99708.14;115797;1208;22408;-68
2021/11/01 13:12:35;;;;;;;;;;;;;;;10.08;67.31;99708.89;115609;1209;138999;-68
2021/11/01 13:18:04;;;;;;;88.10;45.80;;;;;;;10.05;67.33;99707.97;115644;1209;138730;-68
2021/11/01 13:20:34;;;;;;;52.20;32.10;;;;;;;10.05;67.46;99706.05;115961;1204;22408;-68
2021/11/01 13:23:03;;;;;;;50.90;30.30;;;;;;;10.02;67.55;99702.31;115954;1204;137876;-68
2021/11/01 13:37:13;;;;;;;34.40;24.20;;;;;;;9.95;67.90;99683.91;116074;1204;138219;-68
2021/11/01 13:39:41;;;;;;;54.80;36.70;;;;;;;9.92;68.08;99679.80;115155;1204;25195;-68
2021/11/01 13:42:11;;;;;;;39.40;27.00;;;;;;;9.90;68.08;99679.55;116082;1203;137845;-68
2021/11/01 13:44:39;;;;;;;39.40;29.90;;;;;;;9.88;68.26;99680.48;116492;1203;22384;-68
2021/11/01 13:47:11;;;;;;;39.10;27.90;;;;;;;9.85;68.18;99681.47;116303;1203;138593;-69
2021/11/01 13:49:39;;;;;;;43.70;27.50;;;;;;;9.83;68.38;99682.58;116258;1203;23175;-70
2021/11/01 13:55:23;;;;;;;55.10;30.30;;;;;;;9.77;68.44;99681.86;116174;1204;137876;-69
2021/11/01 13:57:57;;;;;;;40.30;27.30;;;;;;;9.73;68.59;99677.98;116266;1203;23129;-69
2021/11/01 14:11:49;;;;;;;48.00;33.10;;;;;;;9.52;69.42;99675.64;116168;1203;137517;-68
2021/11/01 14:20:05;;;;;;;65.70;39.30;;;;;;;9.38;69.67;99677.35;115974;1204;137853;-69
2021/11/01 14:28:20;;;;;;;80.40;64.80;;;;;;;9.25;70.25;99679.67;116287;1203;22728;-70
2021/11/01 14:58:36;;;;;;;172.30;104.70;;;;;;;8.59;73.08;99667.38;116578;1201;22328;-69
2021/11/01 15:17:45;;;;;;;50.00;32.30;;;;;;;8.11;75.00;99676.65;116583;1201;22534;-70
2021/11/01 15:37:07;;;;;;;116.50;91.70;;;;;;;7.74;76.59;99687.52;116506;1201;138387;-70
2021/11/01 16:18:15;;;;;;;54.80;34.50;;;;;;;7.29;79.26;99685.52;116094;1204;137668;-68
2021/11/01 16:20:47;;;;;;;47.30;29.30;;;;;;;7.28;79.19;99683.87;116260;1203;22279;-68
2021/11/01 16:23:36;;;;;;;44.60;28.50;;;;;;;7.27;79.24;99686.77;116192;1203;22264;-69
2021/11/01 16:26:35;;;;;;;49.80;30.40;;;;;;;7.25;79.46;99684.38;116214;1203;138116;-71
2021/11/01 16:33:00;;;;;;;46.30;29.00;;;;;;;7.21;79.70;99690.26;115544;1211;22537;-68
2021/11/01 16:35:42;;;;;;;49.60;31.40;;;;;;;7.21;79.76;99694.70;115577;1211;22909;-69
2021/11/01 16:38:18;;;;;;;51.70;34.10;;;;;;;7.19;79.76;99694.14;115445;1211;138669;-69
2021/11/01 16:40:46;;;;;;;47.90;33.50;;;;;;;7.22;79.82;99701.53;115586;1211;22346;-67
2021/11/01 16:43:18;;;;;;;60.10;37.10;;;;;;;7.23;79.78;99697.96;115461;1211;138184;-68
2021/11/01 16:45:50;;;;;;;56.40;37.10;;;;;;;7.24;79.76;99702.66;115639;1211;22292;-67
2021/11/01 16:48:20;;;;;;;52.60;34.10;;;;;;;7.24;79.85;99697.23;115642;1208;138170;-68
2021/11/01 16:50:52;;;;;;;53.70;33.80;;;;;;;7.24;79.84;99695.45;115834;1208;22375;-68
2021/11/01 16:53:20;;;;;;;54.20;34.50;;;;;;;7.24;79.61;99695.07;115854;1208;22177;-68
2021/11/01 16:55:53;;;;;;;46.70;32.60;;;;;;;7.25;79.87;99692.77;115586;1208;139347;-68
2021/11/01 16:58:29;;;;;;;56.80;35.50;;;;;;;7.25;79.68;99694.09;115864;1208;23354;-67
2021/11/01 17:01:02;;;;;;;53.60;34.50;;;;;;;7.24;79.88;99692.16;115706;1208;138938;-66
2021/11/01 17:03:44;;;;;;;54.30;33.70;;;;;;;7.24;79.76;99693.82;115846;1208;22319;-69
2021/11/01 17:23:00;;;;;;;53.60;33.50;;;;;;;7.20;79.77;99679.02;116666;1200;22370;-68
2021/11/01 17:25:48;;;;;;;46.30;30.80;;;;;;;7.22;79.83;99673.39;116571;1201;139290;-68
2021/11/01 17:28:30;;;;;;;49.30;33.20;;;;;;;7.22;79.86;99669.92;116633;1201;22381;-68
2021/11/01 18:51:53;;;;;;;50.00;32.40;;;;;;;7.08;80.92;99606.77;116716;1200;22440;-71
2021/11/01 18:54:27;;;;;;;47.30;31.00;;;;;;;7.06;80.92;99609.44;116811;1199;22229;-69
2021/11/01 18:56:59;;;;;;;49.00;32.20;;;;;;;7.06;80.84;99606.52;116630;1199;138436;-69
2021/11/01 18:59:36;;;;;;;52.00;32.60;;;;;;;7.04;80.89;99609.31;116571;1200;22375;-69
2021/11/01 19:02:42;;;;;;;50.40;30.50;;;;;;;7.02;80.85;99601.89;116669;1199;137787;-69
2021/11/01 19:08:18;;;;;;;48.90;31.80;;;;;;;6.98;80.67;99606.11;116606;1192;138121;-70
2021/11/01 19:11:51;;;;;;;50.20;32.00;;;;;;;6.96;80.78;99602.52;116717;1200;22371;-70
2021/11/01 20:05:03;;;;;;;53.40;35.60;;;;;;;6.49;81.42;99569.42;116727;1200;22338;-72
2021/11/01 21:26:08;;;;;;;94.30;57.90;;;;;;;6.01;81.45;99516.34;116719;1199;138042;-70
2021/11/01 21:28:36;;;;;;;77.50;49.60;;;;;;;5.99;81.74;99513.08;117032;1199;22246;-70
2021/11/01 21:31:04;;;;;;;78.30;50.10;;;;;;;5.97;81.74;99514.43;116766;1199;22171;-70
2021/11/01 21:33:34;;;;;;;83.40;51.80;;;;;;;5.94;81.51;99505.89;116765;1199;138751;-70
2021/11/01 21:36:05;;;;;;;91.40;55.90;;;;;;;5.95;81.68;99511.13;116789;1199;23108;-70
2021/11/01 21:38:33;;;;;;;119.40;64.50;;;;;;;5.94;81.99;99508.89;116714;1199;138701;-70
2021/11/01 21:41:01;;;;;;;102.40;57.50;;;;;;;5.93;81.81;99505.45;116966;1199;22220;-70
2021/11/01 21:43:30;;;;;;;99.50;59.10;;;;;;;5.92;81.84;99503.75;116673;1199;138537;-69
2021/11/01 21:45:58;;;;;;;88.40;53.00;;;;;;;5.91;81.74;99505.57;116952;1199;22279;-70
2021/11/01 21:48:26;;;;;;;88.90;54.60;;;;;;;5.90;82.07;99505.55;116938;1194;22255;-69
2021/11/01 21:50:54;;;;;;;90.90;53.60;;;;;;;5.88;81.88;99507.44;116722;1199;137758;-70
2021/11/01 21:53:25;;;;;;;99.10;56.20;;;;;;;5.86;82.11;99506.86;116698;1200;22209;-70
2021/11/01 21:55:53;;;;;;;96.80;57.70;;;;;;;5.86;82.34;99503.70;116627;1199;138834;-70
2021/11/01 22:17:53;;;;;;;92.30;53.70;;;;;;;5.92;81.93;99487.67;116966;1199;22312;-69
2021/11/01 22:20:25;;;;;;;79.30;51.50;;;;;;;5.93;81.97;99479.16;116717;1199;138336;-69
2021/11/01 22:33:59;;;;;;;83.30;52.30;;;;;;;5.77;81.75;99466.59;116866;1197;138334;-70
2021/11/01 22:39:21;;;;;;;77.40;50.10;;;;;;;5.70;81.94;99470.13;116949;1198;138605;-70
2021/11/01 22:44:42;;;;;;;80.40;50.90;;;;;;;5.65;81.97;99464.27;116915;1198;139070;-70
2021/11/01 22:58:02;;;;;;;82.30;51.80;;;;;;;5.54;81.85;99457.27;116604;1200;137529;-70
2021/11/01 23:00:43;;;;;;;79.00;48.80;;;;;;;5.52;82.11;99461.91;116713;1200;22334;-70
2021/11/01 23:06:13;;;;;;;78.60;51.40;;;;;;;5.47;82.21;99449.35;116548;1201;22362;-70
2021/11/01 23:33:49;;;;;;;79.80;50.70;;;;;;;5.43;82.32;99426.44;116584;1199;137988;-69
2021/11/01 23:36:20;;;;;;;82.40;52.70;;;;;;;5.43;82.24;99424.20;116669;1200;22326;-69
2021/11/01 23:38:48;;;;;;;82.70;50.60;;;;;;;5.42;82.47;99421.43;116770;1199;137878;-69
2021/11/01 23:41:16;;;;;;;75.40;51.20;;;;;;;5.41;82.35;99415.58;112998;1200;24032;-69
2021/11/01 23:43:47;;;;;;;79.90;49.70;;;;;;;5.41;82.36;99413.14;116753;1199;23543;-69
2021/11/01 23:46:15;;;;;;;80.60;51.30;;;;;;;5.39;82.19;99412.69;116802;1199;139967;-69